North Bay, Canada
Current Conditions -  °F | °C
As of 6:00 PM on Monday 20 Oct 2014 (Local Time) from CYYB Reporting Station
Rain Showers Rain Showers  
Wind Chill: 35°   Ceiling: 300
Heat Index: 41°   Visibility: 1.5mi
Dew Point: 41°   Wind: 9mph
Humidity: 100%   Direction: 100°E
Pressure: 29.77"   Gusts: NA
Location:  46.31°N, 79.46°W
Report Text: CYYB 202200Z 10008KT 1 1/2SM -SHRA BR OVC003 05/05 A2977 RMK SF8 CIG RAG CU EMBD SLP094
Loading
Personal Weather Stations






























Interactive Weather Map
Tropical Storm Tracking
New forecast layout! Learn more

10-Day Weather Forecast

Advertisements
Track Severe Weather on mobile